Time;durP1;ratioP1;P1;durP2;ratioP2;P2;SDS_P1;SDS_P2;PMS_P1;PMS_P2;Temp;Humidity;BMP_temperature;BMP_pressure;BME280_temperature;BME280_humidity;BME280_pressure;Samples;Min_cycle;Max_cycle;Signal;HPM_P1;HPM_P2
2023/12/22 00:01:16;;;;;;;4.20;1.93;;;;;;;;;;5060929;27;87580;-66
2023/12/22 00:03:45;;;;;;;3.23;1.43;;;;;;;;;;5060722;27;89701;-67
2023/12/22 00:06:14;;;;;;;3.23;1.50;;;;;;;;;;5059996;27;89135;-67
2023/12/22 00:08:42;;;;;;;1.90;1.20;;;;;;;;;;5059962;27;88915;-67
2023/12/22 00:11:11;;;;;;;2.60;1.83;;;;;;;;;;5060860;27;87484;-67
2023/12/22 00:13:41;;;;;;;5.90;1.67;;;;;;;;;;5058302;27;89812;-67
2023/12/22 00:16:12;;;;;;;1.37;1.00;;;;;;;;;;5057910;27;90064;-67
2023/12/22 00:18:40;;;;;;;2.50;1.13;;;;;;;;;;5060283;27;89815;-67
2023/12/22 00:21:11;;;;;;;2.50;1.03;;;;;;;;;;5060582;27;87648;-67
2023/12/22 00:23:39;;;;;;;1.70;1.23;;;;;;;;;;5060526;27;89625;-66
2023/12/22 00:26:07;;;;;;;1.57;1.17;;;;;;;;;;5058168;27;89186;-67
2023/12/22 00:28:36;;;;;;;2.83;1.23;;;;;;;;;;5060439;27;87781;-67
2023/12/22 00:31:04;;;;;;;1.27;0.93;;;;;;;;;;5059122;27;87747;-67
2023/12/22 00:33:34;;;;;;;2.10;1.27;;;;;;;;;;5061066;27;89509;-67
2023/12/22 00:36:02;;;;;;;2.10;1.40;;;;;;;;;;5060864;27;89197;-67
2023/12/22 00:38:31;;;;;;;2.77;1.60;;;;;;;;;;5060243;27;88812;-67
2023/12/22 00:40:59;;;;;;;1.70;1.20;;;;;;;;;;5059568;27;87927;-67
2023/12/22 00:43:28;;;;;;;5.47;1.17;;;;;;;;;;5060649;27;89560;-67
2023/12/22 00:45:57;;;;;;;3.23;1.27;;;;;;;;;;5061392;27;89182;-67
2023/12/22 00:48:27;;;;;;;1.00;0.90;;;;;;;;;;5060304;27;88989;-67
2023/12/22 00:50:57;;;;;;;2.27;1.30;;;;;;;;;;5061090;27;87647;-67
2023/12/22 00:53:25;;;;;;;1.10;1.00;;;;;;;;;;5059906;27;89689;-66
2023/12/22 00:55:57;;;;;;;1.47;0.77;;;;;;;;;;5058182;27;89180;-67
2023/12/22 00:58:28;;;;;;;1.83;1.40;;;;;;;;;;5058294;27;88961;-67
2023/12/22 01:00:56;;;;;;;5.57;1.13;;;;;;;;;;5059983;27;87669;-67
2023/12/22 01:03:25;;;;;;;2.63;1.30;;;;;;;;;;5057521;27;89713;-67
2023/12/22 01:05:53;;;;;;;3.67;1.17;;;;;;;;;;5058996;27;89910;-67
2023/12/22 01:08:25;;;;;;;1.23;0.90;;;;;;;;;;5059083;27;89755;-66
2023/12/22 01:10:53;;;;;;;2.30;1.77;;;;;;;;;;5060015;27;87653;-66
2023/12/22 01:13:22;;;;;;;2.57;1.73;;;;;;;;;;5058833;27;89702;-66
2023/12/22 01:15:50;;;;;;;3.20;1.33;;;;;;;;;;5058114;27;89264;-66
2023/12/22 01:18:20;;;;;;;3.13;1.53;;;;;;;;;;5059230;27;88775;-66
2023/12/22 01:20:49;;;;;;;3.43;1.07;;;;;;;;;;5053597;27;87646;-67
2023/12/22 01:23:18;;;;;;;3.33;1.20;;;;;;;;;;5058458;27;89674;-67
2023/12/22 01:25:47;;;;;;;2.30;1.13;;;;;;;;;;5056795;27;89184;-66
2023/12/22 01:28:16;;;;;;;2.10;1.17;;;;;;;;;;5059253;27;88987;-67
2023/12/22 01:30:44;;;;;;;2.57;1.30;;;;;;;;;;5059606;27;88011;-67
2023/12/22 01:33:15;;;;;;;4.60;1.47;;;;;;;;;;5059149;27;89420;-67
2023/12/22 01:35:43;;;;;;;4.80;1.63;;;;;;;;;;5057868;27;89111;-67
2023/12/22 01:38:13;;;;;;;2.73;1.80;;;;;;;;;;5055770;27;88854;-66
2023/12/22 01:40:42;;;;;;;5.33;2.30;;;;;;;;;;5057396;27;89409;-67
2023/12/22 01:43:13;;;;;;;2.50;1.70;;;;;;;;;;5056520;27;89987;-68
2023/12/22 01:45:43;;;;;;;5.93;1.97;;;;;;;;;;5055834;27;89382;-68
2023/12/22 01:48:11;;;;;;;1.87;1.60;;;;;;;;;;5058869;27;88903;-71
2023/12/22 01:50:40;;;;;;;3.67;1.60;;;;;;;;;;5055439;27;89109;-67
2023/12/22 01:53:09;;;;;;;5.37;1.80;;;;;;;;;;5057510;27;89619;-66
2023/12/22 01:55:38;;;;;;;4.73;2.07;;;;;;;;;;5057900;27;89494;-70
2023/12/22 01:58:07;;;;;;;5.73;2.23;;;;;;;;;;5053231;27;89892;-66
2023/12/22 02:00:36;;;;;;;4.80;2.73;;;;;;;;;;5052793;27;88886;-67
2023/12/22 02:03:07;;;;;;;4.67;2.40;;;;;;;;;;5058735;27;89792;-66
2023/12/22 02:05:38;;;;;;;3.40;2.13;;;;;;;;;;5058891;27;89180;-67
2023/12/22 02:08:07;;;;;;;9.23;2.73;;;;;;;;;;5058351;27;88094;-66
2023/12/22 02:10:35;;;;;;;2.70;2.00;;;;;;;;;;5059065;27;87550;-66
2023/12/22 02:13:04;;;;;;;7.47;2.80;;;;;;;;;;5056365;27;89696;-67
2023/12/22 02:15:32;;;;;;;5.23;2.20;;;;;;;;;;5057250;27;89157;-67
2023/12/22 02:18:04;;;;;;;3.20;1.80;;;;;;;;;;5057145;27;88824;-67
2023/12/22 02:20:32;;;;;;;2.07;1.70;;;;;;;;;;5058623;27;87751;-67
2023/12/22 02:23:02;;;;;;;4.23;2.63;;;;;;;;;;5059086;27;89959;-67
2023/12/22 02:25:30;;;;;;;4.00;2.33;;;;;;;;;;5057848;27;89157;-67
2023/12/22 02:27:59;;;;;;;2.77;2.33;;;;;;;;;;5056612;27;89036;-67
2023/12/22 02:30:28;;;;;;;3.50;2.30;;;;;;;;;;5059138;27;87680;-67
2023/12/22 02:33:01;;;;;;;6.70;2.37;;;;;;;;;;5061944;27;89695;-67
2023/12/22 02:35:32;;;;;;;3.93;1.90;;;;;;;;;;5060805;27;89296;-67
2023/12/22 02:38:03;;;;;;;7.10;2.57;;;;;;;;;;5062281;27;88854;-67
2023/12/22 02:40:32;;;;;;;7.27;2.60;;;;;;;;;;5062569;27;88416;-67
2023/12/22 02:43:01;;;;;;;6.67;2.50;;;;;;;;;;5062996;27;89977;-67
2023/12/22 02:45:30;;;;;;;5.53;2.77;;;;;;;;;;5058169;27;89010;-67
2023/12/22 02:47:58;;;;;;;6.10;2.27;;;;;;;;;;5062011;27;89868;-67
2023/12/22 02:50:27;;;;;;;5.53;2.70;;;;;;;;;;5063127;27;87633;-67
2023/12/22 02:52:59;;;;;;;6.90;2.97;;;;;;;;;;5063202;27;89675;-67
2023/12/22 02:55:31;;;;;;;4.17;2.67;;;;;;;;;;5060193;27;88875;-67
2023/12/22 02:57:59;;;;;;;5.07;2.40;;;;;;;;;;5061956;27;88813;-67
2023/12/22 03:00:29;;;;;;;4.80;2.60;;;;;;;;;;5058854;27;88952;-67
2023/12/22 03:02:57;;;;;;;3.97;1.73;;;;;;;;;;5062728;27;89653;-67
2023/12/22 03:05:26;;;;;;;4.37;2.53;;;;;;;;;;5062668;27;89180;-67
2023/12/22 03:07:54;;;;;;;6.73;3.00;;;;;;;;;;5062737;27;87766;-67
2023/12/22 03:10:22;;;;;;;5.57;2.97;;;;;;;;;;5061019;27;88602;-67
2023/12/22 03:12:52;;;;;;;4.37;2.23;;;;;;;;;;5060261;27;89492;-67
2023/12/22 03:15:20;;;;;;;3.73;2.17;;;;;;;;;;5061012;27;89194;-67
2023/12/22 03:17:49;;;;;;;5.00;2.27;;;;;;;;;;5058881;27;88884;-67
2023/12/22 03:20:17;;;;;;;4.50;2.67;;;;;;;;;;5063041;27;87354;-67
2023/12/22 03:22:46;;;;;;;5.83;3.00;;;;;;;;;;5060318;27;89626;-67
2023/12/22 03:25:15;;;;;;;4.70;3.20;;;;;;;;;;5060948;27;88083;-67
2023/12/22 03:27:43;;;;;;;4.63;2.37;;;;;;;;;;5061451;27;88847;-67
2023/12/22 03:30:13;;;;;;;5.37;2.83;;;;;;;;;;5061748;27;87646;-67
2023/12/22 03:32:42;;;;;;;3.37;2.67;;;;;;;;;;5059864;27;90093;-67
2023/12/22 03:35:10;;;;;;;6.10;3.40;;;;;;;;;;5060507;27;90160;-67
2023/12/22 03:37:39;;;;;;;6.40;3.57;;;;;;;;;;5057316;27;89747;-67
2023/12/22 03:40:11;;;;;;;4.77;2.87;;;;;;;;;;5056622;27;87462;-67
2023/12/22 03:42:41;;;;;;;6.47;3.37;;;;;;;;;;5054035;27;88492;-67
2023/12/22 03:45:12;;;;;;;5.00;3.47;;;;;;;;;;5059421;27;89072;-67
2023/12/22 03:47:45;;;;;;;8.07;3.60;;;;;;;;;;5055159;27;88821;-67
2023/12/22 03:50:15;;;;;;;5.17;3.73;;;;;;;;;;5059244;27;87580;-67
2023/12/22 03:52:44;;;;;;;7.33;3.47;;;;;;;;;;5058020;27;89651;-67
2023/12/22 03:55:11;;;;;;;7.87;3.33;;;;;;;;;;5058915;27;88013;-67
2023/12/22 03:57:41;;;;;;;6.30;3.03;;;;;;;;;;5059735;27;91120;-67
2023/12/22 04:00:14;;;;;;;5.17;2.63;;;;;;;;;;5058093;27;88872;-67
2023/12/22 04:02:45;;;;;;;5.13;3.60;;;;;;;;;;5058187;27;89624;-67
2023/12/22 04:05:14;;;;;;;5.97;3.70;;;;;;;;;;5056082;27;88810;-68
2023/12/22 04:07:42;;;;;;;5.50;3.03;;;;;;;;;;5056936;27;88993;-67
2023/12/22 04:10:11;;;;;;;3.43;2.50;;;;;;;;;;5052096;27;88520;-67
2023/12/22 04:12:39;;;;;;;4.87;2.60;;;;;;;;;;5055686;27;89609;-67
2023/12/22 04:15:09;;;;;;;5.83;2.53;;;;;;;;;;5056051;27;88984;-67
2023/12/22 04:17:38;;;;;;;3.87;2.30;;;;;;;;;;5056507;27;91424;-67
2023/12/22 04:20:09;;;;;;;4.97;2.63;;;;;;;;;;5058039;27;89044;-67
2023/12/22 04:22:38;;;;;;;6.57;3.07;;;;;;;;;;5053879;27;91735;-67
2023/12/22 04:25:07;;;;;;;3.00;2.33;;;;;;;;;;5057146;27;90081;-67
2023/12/22 04:27:37;;;;;;;3.70;2.37;;;;;;;;;;5056057;27;90454;-67
2023/12/22 04:30:09;;;;;;;3.80;2.90;;;;;;;;;;5058047;27;87683;-67
2023/12/22 04:32:37;;;;;;;4.63;3.00;;;;;;;;;;5055581;27;89550;-67
2023/12/22 04:35:08;;;;;;;3.97;2.60;;;;;;;;;;5057369;27;91332;-67
2023/12/22 04:37:36;;;;;;;4.23;2.53;;;;;;;;;;5054192;27;89680;-67
2023/12/22 04:40:07;;;;;;;5.37;3.37;;;;;;;;;;5057747;27;88230;-66
2023/12/22 04:42:35;;;;;;;5.83;2.77;;;;;;;;;;5055404;27;89915;-67
2023/12/22 04:45:05;;;;;;;4.93;2.63;;;;;;;;;;5056444;27;89846;-67
2023/12/22 04:47:34;;;;;;;4.00;1.97;;;;;;;;;;5057638;27;88768;-67
2023/12/22 04:50:03;;;;;;;3.67;2.60;;;;;;;;;;5055565;27;88038;-68
2023/12/22 04:52:34;;;;;;;2.60;1.90;;;;;;;;;;5056704;27;88706;-67
2023/12/22 04:55:03;;;;;;;5.53;2.73;;;;;;;;;;5055594;27;89313;-67
2023/12/22 04:57:31;;;;;;;3.40;2.20;;;;;;;;;;5054955;27;88748;-67
2023/12/22 05:00:03;;;;;;;6.60;2.60;;;;;;;;;;5056451;27;87825;-67
2023/12/22 05:02:32;;;;;;;5.23;2.10;;;;;;;;;;5053103;27;90042;-67
2023/12/22 05:05:02;;;;;;;6.50;2.50;;;;;;;;;;5056829;27;89100;-68
2023/12/22 05:07:34;;;;;;;3.40;1.97;;;;;;;;;;5054726;27;87751;-67
2023/12/22 05:10:04;;;;;;;2.00;1.80;;;;;;;;;;5056567;27;88513;-68
2023/12/22 05:12:33;;;;;;;3.57;2.10;;;;;;;;;;5056614;27;90339;-67
2023/12/22 05:15:01;;;;;;;3.97;1.73;;;;;;;;;;5054281;27;91011;-67
2023/12/22 05:17:32;;;;;;;3.40;2.17;;;;;;;;;;5054729;27;92752;-67
2023/12/22 05:20:02;;;;;;;2.93;1.87;;;;;;;;;;5058840;27;88058;-67
2023/12/22 05:22:31;;;;;;;2.27;1.63;;;;;;;;;;5059834;27;88479;-67
2023/12/22 05:25:06;;;;;;;3.90;2.00;;;;;;;;;;5059125;27;91011;-68
2023/12/22 05:27:34;;;;;;;3.77;2.00;;;;;;;;;;5056224;27;90261;-67
2023/12/22 05:30:09;;;;;;;3.27;2.13;;;;;;;;;;5060000;27;87596;-67
2023/12/22 05:32:37;;;;;;;2.93;1.50;;;;;;;;;;5057885;27;89664;-67
2023/12/22 05:35:06;;;;;;;3.57;1.33;;;;;;;;;;5059467;27;89276;-67
2023/12/22 05:37:35;;;;;;;4.13;1.90;;;;;;;;;;5055477;27;88921;-67
2023/12/22 05:40:06;;;;;;;2.23;1.53;;;;;;;;;;5059526;27;88102;-67
2023/12/22 05:42:35;;;;;;;6.50;2.40;;;;;;;;;;5057873;27;89896;-67
2023/12/22 05:45:06;;;;;;;4.57;1.57;;;;;;;;;;5058862;27;89064;-67
2023/12/22 05:47:34;;;;;;;3.87;1.50;;;;;;;;;;5055517;27;88888;-67
2023/12/22 05:50:03;;;;;;;5.07;1.70;;;;;;;;;;5055081;27;87490;-67
2023/12/22 05:52:31;;;;;;;4.00;1.80;;;;;;;;;;5058415;27;89717;-67
2023/12/22 05:55:09;;;;;;;3.93;1.43;;;;;;;;;;5058499;27;89187;-67
2023/12/22 05:57:39;;;;;;;2.87;1.40;;;;;;;;;;5056139;27;88775;-67
2023/12/22 06:00:11;;;;;;;4.00;1.13;;;;;;;;;;5058216;27;88891;-67
2023/12/22 06:02:41;;;;;;;4.80;1.23;;;;;;;;;;5057368;27;88342;-67
2023/12/22 06:05:09;;;;;;;5.83;1.67;;;;;;;;;;5058349;27;90069;-67
2023/12/22 06:07:38;;;;;;;2.70;1.30;;;;;;;;;;5058490;27;89887;-67
2023/12/22 06:10:07;;;;;;;2.37;1.47;;;;;;;;;;5058553;27;87738;-67
2023/12/22 06:12:37;;;;;;;4.90;2.30;;;;;;;;;;5054594;27;89679;-67
2023/12/22 06:15:08;;;;;;;1.40;0.83;;;;;;;;;;5056796;27;89067;-66
2023/12/22 06:17:37;;;;;;;4.13;1.97;;;;;;;;;;5057954;27;88815;-67
2023/12/22 06:20:06;;;;;;;14.33;1.50;;;;;;;;;;5058289;27;89009;-67
2023/12/22 06:22:34;;;;;;;2.33;1.23;;;;;;;;;;5057645;27;89587;-67
2023/12/22 06:25:07;;;;;;;4.13;1.70;;;;;;;;;;5058909;27;89064;-67
2023/12/22 06:27:36;;;;;;;1.67;1.27;;;;;;;;;;5059156;27;87469;-67
2023/12/22 06:30:07;;;;;;;1.57;1.23;;;;;;;;;;5058580;27;87998;-67
2023/12/22 06:32:41;;;;;;;2.60;1.17;;;;;;;;;;5059482;27;89557;-67
2023/12/22 06:35:12;;;;;;;4.23;1.30;;;;;;;;;;5058583;27;89135;-67
2023/12/22 06:37:45;;;;;;;5.27;0.90;;;;;;;;;;5057707;27;88928;-67
2023/12/22 06:40:14;;;;;;;2.57;0.97;;;;;;;;;;5057904;27;88668;-67
2023/12/22 06:42:42;;;;;;;1.43;1.17;;;;;;;;;;5059285;27;89427;-67
2023/12/22 06:45:11;;;;;;;3.27;1.23;;;;;;;;;;5059435;27;89045;-71
2023/12/22 06:47:41;;;;;;;1.43;1.23;;;;;;;;;;5059455;27;88926;-68
2023/12/22 06:50:10;;;;;;;2.93;1.80;;;;;;;;;;5060122;27;87486;-67
2023/12/22 06:52:39;;;;;;;4.33;1.53;;;;;;;;;;5058706;27;89689;-67
2023/12/22 06:55:08;;;;;;;3.80;1.60;;;;;;;;;;5058096;27;89979;-69
2023/12/22 06:57:38;;;;;;;4.17;1.73;;;;;;;;;;5059816;27;89777;-67
2023/12/22 07:00:09;;;;;;;3.87;1.50;;;;;;;;;;5056026;27;87644;-68
2023/12/22 07:02:44;;;;;;;4.47;2.10;;;;;;;;;;5054135;27;89824;-68
2023/12/22 07:05:33;;;;;;;1.67;1.07;;;;;;;;;;5057714;27;88873;-68
2023/12/22 07:08:05;;;;;;;2.33;1.33;;;;;;;;;;5058096;27;91215;-67
2023/12/22 07:10:35;;;;;;;1.93;1.13;;;;;;;;;;5057839;27;87559;-67
2023/12/22 07:13:03;;;;;;;7.80;1.40;;;;;;;;;;5058749;27;89752;-68
2023/12/22 07:15:33;;;;;;;2.17;1.13;;;;;;;;;;5053331;27;89044;-68
2023/12/22 07:18:02;;;;;;;4.57;1.47;;;;;;;;;;5061011;27;88847;-68
2023/12/22 07:20:30;;;;;;;1.40;0.90;;;;;;;;;;5060710;27;87915;-67
2023/12/22 07:23:00;;;;;;;3.13;1.27;;;;;;;;;;5062279;27;89639;-68
2023/12/22 07:25:28;;;;;;;3.77;1.63;;;;;;;;;;5059425;27;89209;-69
2023/12/22 07:27:58;;;;;;;2.30;1.27;;;;;;;;;;5058120;27;89155;-68
2023/12/22 07:30:27;;;;;;;1.43;1.10;;;;;;;;;;5060850;27;87449;-68
2023/12/22 07:32:56;;;;;;;3.70;1.10;;;;;;;;;;5061305;27;88491;-68
2023/12/22 07:35:24;;;;;;;1.00;0.90;;;;;;;;;;5058854;27;88987;-68
2023/12/22 07:37:54;;;;;;;2.47;1.17;;;;;;;;;;5062085;27;90504;-68
2023/12/22 07:40:26;;;;;;;3.50;1.87;;;;;;;;;;5061988;27;87526;-69
2023/12/22 07:42:56;;;;;;;1.27;1.00;;;;;;;;;;5062221;27;89839;-68
2023/12/22 07:45:24;;;;;;;3.17;1.10;;;;;;;;;;5061529;27;90136;-69
2023/12/22 07:47:55;;;;;;;3.70;1.73;;;;;;;;;;5061214;27;89513;-68
2023/12/22 07:50:24;;;;;;;2.43;1.57;;;;;;;;;;5059923;27;87688;-68
2023/12/22 07:52:53;;;;;;;2.67;1.53;;;;;;;;;;5060475;27;89637;-68
2023/12/22 07:55:23;;;;;;;4.40;1.97;;;;;;;;;;5060270;27;89186;-68
2023/12/22 07:57:59;;;;;;;1.97;1.37;;;;;;;;;;5059273;27;88841;-68
2023/12/22 08:00:32;;;;;;;2.30;1.40;;;;;;;;;;5061345;27;87624;-68
2023/12/22 08:03:01;;;;;;;3.17;1.37;;;;;;;;;;5059641;27;88847;-68
2023/12/22 08:05:30;;;;;;;1.70;1.33;;;;;;;;;;5061327;27;89107;-69
2023/12/22 08:08:00;;;;;;;2.27;1.30;;;;;;;;;;5058946;27;88860;-69
2023/12/22 08:10:28;;;;;;;3.33;1.40;;;;;;;;;;5056900;27;89108;-69
2023/12/22 08:12:58;;;;;;;4.43;1.87;;;;;;;;;;5059346;27;89462;-68
2023/12/22 08:15:26;;;;;;;3.30;1.50;;;;;;;;;;5057249;27;89194;-67
2023/12/22 08:18:04;;;;;;;2.80;0.90;;;;;;;;;;5062417;27;88105;-69
2023/12/22 08:20:34;;;;;;;3.93;1.47;;;;;;;;;;5066191;27;87647;-68
2023/12/22 08:23:08;;;;;;;3.23;1.47;;;;;;;;;;5061015;27;89868;-69
2023/12/22 08:25:41;;;;;;;1.47;1.37;;;;;;;;;;5059569;27;89115;-69
2023/12/22 08:28:14;;;;;;;2.97;1.57;;;;;;;;;;5056007;27;88872;-72
2023/12/22 08:30:43;;;;;;;2.47;1.67;;;;;;;;;;5061317;27;87979;-69
2023/12/22 08:33:11;;;;;;;2.67;1.57;;;;;;;;;;5055887;27;89813;-71
2023/12/22 08:35:42;;;;;;;6.93;1.77;;;;;;;;;;5059869;27;90073;-70
2023/12/22 08:38:13;;;;;;;3.43;1.90;;;;;;;;;;5060307;27;89626;-70
2023/12/22 08:40:42;;;;;;;2.60;1.13;;;;;;;;;;5059865;27;87532;-70
2023/12/22 08:43:12;;;;;;;3.20;1.57;;;;;;;;;;5056657;27;88529;-69
2023/12/22 08:45:42;;;;;;;2.20;1.73;;;;;;;;;;5057137;27;88029;-71
2023/12/22 08:48:13;;;;;;;5.47;1.67;;;;;;;;;;5058246;27;88892;-69
2023/12/22 08:50:42;;;;;;;3.97;1.30;;;;;;;;;;5056090;27;88912;-71
2023/12/22 08:53:12;;;;;;;6.57;1.90;;;;;;;;;;5060899;27;88423;-71
2023/12/22 08:55:40;;;;;;;2.63;1.63;;;;;;;;;;5059421;27;89574;-71
2023/12/22 08:58:09;;;;;;;1.77;1.20;;;;;;;;;;5059715;27;87772;-70
2023/12/22 09:00:38;;;;;;;3.90;1.50;;;;;;;;;;5052420;27;87907;-72
2023/12/22 09:03:08;;;;;;;1.73;1.10;;;;;;;;;;5058463;27;89790;-69
2023/12/22 09:05:37;;;;;;;3.20;1.83;;;;;;;;;;5058382;27;89086;-70
2023/12/22 09:08:07;;;;;;;3.20;1.97;;;;;;;;;;5060631;27;88919;-68
2023/12/22 09:10:38;;;;;;;3.73;1.90;;;;;;;;;;5061577;27;87311;-67
2023/12/22 09:13:07;;;;;;;6.33;1.37;;;;;;;;;;5056652;27;89603;-67
2023/12/22 09:15:41;;;;;;;4.20;1.17;;;;;;;;;;5058762;27;89167;-67
2023/12/22 09:18:14;;;;;;;3.43;1.63;;;;;;;;;;5056442;27;90531;-67
2023/12/22 09:20:43;;;;;;;4.20;1.80;;;;;;;;;;5059313;27;87381;-67
2023/12/22 09:23:11;;;;;;;2.23;1.27;;;;;;;;;;5058671;27;90177;-67
2023/12/22 09:25:39;;;;;;;2.73;1.57;;;;;;;;;;5058252;27;89999;-67
2023/12/22 09:28:09;;;;;;;2.43;1.60;;;;;;;;;;5057453;27;89838;-67
2023/12/22 09:30:37;;;;;;;1.57;1.20;;;;;;;;;;5055682;27;87650;-67
2023/12/22 09:33:06;;;;;;;3.37;1.10;;;;;;;;;;5059898;27;89582;-67
2023/12/22 09:35:36;;;;;;;1.40;0.93;;;;;;;;;;5057584;27;89386;-66
2023/12/22 09:38:04;;;;;;;1.60;1.10;;;;;;;;;;5059125;27;88786;-67
2023/12/22 09:40:34;;;;;;;2.87;1.03;;;;;;;;;;5057367;27;87685;-67
2023/12/22 09:43:05;;;;;;;2.07;1.20;;;;;;;;;;5055010;27;89307;-67
2023/12/22 09:45:33;;;;;;;1.73;1.10;;;;;;;;;;5056789;27;90406;-66
2023/12/22 09:48:03;;;;;;;1.20;0.97;;;;;;;;;;5058719;27;88820;-66
2023/12/22 09:50:33;;;;;;;0.70;0.70;;;;;;;;;;5056046;27;90569;-66
2023/12/22 09:53:03;;;;;;;1.40;1.17;;;;;;;;;;5052069;27;90998;-66
2023/12/22 09:55:34;;;;;;;3.30;0.87;;;;;;;;;;5057566;27;89058;-63
2023/12/22 09:58:04;;;;;;;1.97;1.20;;;;;;;;;;5059895;27;88792;-65
2023/12/22 10:00:33;;;;;;;1.90;1.03;;;;;;;;;;5058342;27;87674;-69
2023/12/22 10:03:02;;;;;;;1.30;1.03;;;;;;;;;;5059617;27;89710;-67
2023/12/22 10:05:31;;;;;;;2.30;1.03;;;;;;;;;;5055434;27;89132;-69
2023/12/22 10:08:00;;;;;;;3.70;1.13;;;;;;;;;;5055380;27;88793;-69
2023/12/22 10:10:30;;;;;;;1.23;0.97;;;;;;;;;;5058417;27;87395;-68
2023/12/22 10:12:58;;;;;;;1.90;0.53;;;;;;;;;;5055847;27;89306;-66
2023/12/22 10:15:28;;;;;;;1.70;0.67;;;;;;;;;;5057003;27;89996;-69
2023/12/22 10:17:56;;;;;;;3.70;1.37;;;;;;;;;;5056205;27;89775;-69
2023/12/22 10:20:25;;;;;;;1.93;1.20;;;;;;;;;;5052593;27;87662;-65
2023/12/22 10:22:54;;;;;;;1.57;0.77;;;;;;;;;;5053900;27;89815;-68
2023/12/22 10:25:24;;;;;;;1.97;1.00;;;;;;;;;;5059291;27;89572;-67
2023/12/22 10:27:54;;;;;;;1.53;0.90;;;;;;;;;;5057875;27;89047;-65
2023/12/22 10:30:24;;;;;;;2.73;2.23;;;;;;;;;;5056603;27;87553;-68
2023/12/22 10:32:52;;;;;;;3.10;1.70;;;;;;;;;;5053571;27;89637;-67
2023/12/22 10:35:21;;;;;;;4.53;1.87;;;;;;;;;;5057221;27;88817;-67
2023/12/22 10:37:52;;;;;;;1.77;1.23;;;;;;;;;;5058135;27;87716;-66
2023/12/22 10:40:21;;;;;;;1.60;1.23;;;;;;;;;;5056243;27;88302;-68
2023/12/22 10:42:50;;;;;;;2.53;1.60;;;;;;;;;;5053241;27;89704;-69
2023/12/22 10:45:20;;;;;;;3.13;1.57;;;;;;;;;;5056056;27;89142;-66
2023/12/22 10:47:50;;;;;;;0.90;0.83;;;;;;;;;;5053691;27;88826;-70
2023/12/22 10:50:20;;;;;;;5.07;1.30;;;;;;;;;;5055390;27;87498;-68
2023/12/22 10:52:53;;;;;;;1.23;1.00;;;;;;;;;;5057927;27;89596;-66
2023/12/22 10:55:22;;;;;;;1.53;1.07;;;;;;;;;;5060497;27;89527;-66
2023/12/22 10:57:50;;;;;;;1.30;0.80;;;;;;;;;;5062772;27;87693;-67
2023/12/22 11:00:21;;;;;;;1.47;0.77;;;;;;;;;;5057017;27;87747;-66
2023/12/22 11:02:49;;;;;;;1.00;0.70;;;;;;;;;;5060400;27;89582;-67
2023/12/22 11:05:18;;;;;;;0.97;0.70;;;;;;;;;;5057292;27;90153;-67
2023/12/22 11:07:49;;;;;;;4.03;0.80;;;;;;;;;;5057816;27;89637;-69
2023/12/22 11:10:20;;;;;;;1.77;0.50;;;;;;;;;;5057941;27;87675;-67
2023/12/22 11:12:48;;;;;;;1.00;0.50;;;;;;;;;;5057382;27;89684;-67
2023/12/22 11:15:17;;;;;;;1.33;0.70;;;;;;;;;;5054202;27;89223;-67
2023/12/22 11:17:47;;;;;;;1.23;0.60;;;;;;;;;;5062002;27;88801;-66
2023/12/22 11:20:15;;;;;;;0.93;0.67;;;;;;;;;;5056379;27;87617;-67
2023/12/22 11:22:44;;;;;;;1.20;0.50;;;;;;;;;;5060252;27;89545;-71
2023/12/22 11:25:14;;;;;;;2.10;0.87;;;;;;;;;;5058520;27;89941;-67
2023/12/22 11:27:45;;;;;;;4.30;0.90;;;;;;;;;;5059147;27;88856;-67
2023/12/22 11:30:14;;;;;;;3.33;1.13;;;;;;;;;;5058945;27;88744;-66
2023/12/22 11:32:43;;;;;;;2.67;1.40;;;;;;;;;;5059675;27;89806;-67
2023/12/22 11:35:13;;;;;;;4.40;1.60;;;;;;;;;;5058195;27;89086;-66
2023/12/22 11:37:43;;;;;;;1.47;1.37;;;;;;;;;;5057760;27;88429;-66
2023/12/22 11:40:12;;;;;;;2.23;1.57;;;;;;;;;;5056979;27;89065;-66
2023/12/22 11:42:42;;;;;;;1.27;1.00;;;;;;;;;;5053335;27;88632;-66
2023/12/22 11:45:16;;;;;;;2.97;1.90;;;;;;;;;;5074264;27;89047;-65
2023/12/22 11:47:45;;;;;;;3.77;1.60;;;;;;;;;;5075879;27;87884;-66
2023/12/22 11:50:15;;;;;;;4.90;1.60;;;;;;;;;;5074412;27;87667;-67
2023/12/22 11:52:43;;;;;;;1.90;1.73;;;;;;;;;;5060084;27;90562;-67
2023/12/22 11:55:13;;;;;;;4.27;2.57;;;;;;;;;;5060594;27;90123;-69
2023/12/22 11:57:41;;;;;;;5.83;2.57;;;;;;;;;;5051209;27;89771;-68
2023/12/22 12:00:11;;;;;;;5.30;3.23;;;;;;;;;;5055097;27;87697;-69
2023/12/22 12:02:40;;;;;;;5.20;2.93;;;;;;;;;;5059981;27;88441;-69
2023/12/22 12:05:09;;;;;;;10.10;3.70;;;;;;;;;;5052433;27;89175;-70
2023/12/22 12:07:40;;;;;;;6.50;3.80;;;;;;;;;;5059601;27;88349;-69
2023/12/22 12:10:09;;;;;;;6.87;3.60;;;;;;;;;;5060586;27;87846;-72
2023/12/22 12:12:37;;;;;;;4.23;3.27;;;;;;;;;;5054608;27;89653;-71
2023/12/22 12:15:12;;;;;;;4.73;3.50;;;;;;;;;;5056797;27;88070;-69
2023/12/22 12:17:41;;;;;;;6.00;3.47;;;;;;;;;;5056272;27;88552;-68
2023/12/22 12:20:10;;;;;;;5.57;3.67;;;;;;;;;;5059945;27;88226;-69
2023/12/22 12:22:40;;;;;;;8.20;3.67;;;;;;;;;;5056118;27;89952;-69
2023/12/22 12:25:11;;;;;;;5.53;2.87;;;;;;;;;;5058328;27;89125;-68
2023/12/22 12:27:58;;;;;;;2.40;1.67;;;;;;;;;;5057856;27;88841;-67
2023/12/22 12:30:26;;;;;;;3.50;1.20;;;;;;;;;;5053470;27;89003;-67
2023/12/22 12:32:56;;;;;;;6.00;2.00;;;;;;;;;;5057854;27;89796;-67
2023/12/22 12:35:25;;;;;;;7.17;1.20;;;;;;;;;;5055703;27;89413;-67
2023/12/22 12:37:55;;;;;;;5.17;1.37;;;;;;;;;;5060116;27;88826;-67
2023/12/22 12:40:24;;;;;;;2.17;1.27;;;;;;;;;;5057079;27;88635;-67
2023/12/22 12:42:52;;;;;;;4.20;1.57;;;;;;;;;;5053863;27;89588;-67
2023/12/22 12:45:23;;;;;;;1.53;1.03;;;;;;;;;;5059444;27;89207;-66
2023/12/22 12:47:58;;;;;;;3.33;1.47;;;;;;;;;;5055177;27;89997;-67
2023/12/22 12:50:31;;;;;;;1.37;0.97;;;;;;;;;;5059010;27;87532;-66
2023/12/22 12:53:01;;;;;;;3.60;1.47;;;;;;;;;;5058880;27;88330;-66
2023/12/22 12:55:29;;;;;;;1.57;1.13;;;;;;;;;;5060574;27;89307;-66
2023/12/22 12:57:58;;;;;;;3.20;1.67;;;;;;;;;;5057780;27;88816;-68
2023/12/22 13:00:28;;;;;;;2.90;1.57;;;;;;;;;;5056230;27;87609;-67
2023/12/22 13:02:56;;;;;;;4.87;1.80;;;;;;;;;;5057824;27;89279;-67
2023/12/22 13:05:25;;;;;;;2.07;1.10;;;;;;;;;;5060305;27;89241;-67
2023/12/22 13:07:53;;;;;;;3.17;1.20;;;;;;;;;;5059827;27;88765;-67
2023/12/22 13:10:23;;;;;;;1.53;1.10;;;;;;;;;;5057173;27;88354;-67
2023/12/22 13:12:53;;;;;;;2.90;1.50;;;;;;;;;;5055493;27;89762;-67
2023/12/22 13:15:22;;;;;;;2.33;1.13;;;;;;;;;;5057443;27;89308;-67
2023/12/22 13:17:50;;;;;;;2.27;1.90;;;;;;;;;;5056671;27;88909;-67
2023/12/22 13:20:20;;;;;;;2.60;1.23;;;;;;;;;;5057016;27;89007;-67
2023/12/22 13:22:48;;;;;;;1.97;1.23;;;;;;;;;;5058974;27;89804;-67
2023/12/22 13:25:17;;;;;;;2.87;1.60;;;;;;;;;;5057739;27;89089;-68
2023/12/22 13:27:47;;;;;;;1.80;1.13;;;;;;;;;;5058615;27;88825;-68
2023/12/22 13:30:16;;;;;;;0.80;0.80;;;;;;;;;;5058445;27;87930;-68
2023/12/22 13:32:45;;;;;;;1.63;1.23;;;;;;;;;;5058644;27;89587;-67
2023/12/22 13:35:14;;;;;;;3.87;1.80;;;;;;;;;;5056505;27;90230;-67
2023/12/22 13:37:43;;;;;;;5.33;1.83;;;;;;;;;;5055370;27;90052;-68
2023/12/22 13:40:12;;;;;;;1.17;1.00;;;;;;;;;;5056830;27;87641;-67
2023/12/22 13:42:43;;;;;;;2.23;1.20;;;;;;;;;;5060901;27;89594;-67
2023/12/22 13:45:13;;;;;;;2.73;0.80;;;;;;;;;;5056878;27;89126;-65
2023/12/22 13:47:46;;;;;;;3.23;1.00;;;;;;;;;;5055556;27;89823;-66
2023/12/22 13:50:16;;;;;;;1.80;1.13;;;;;;;;;;5048054;27;87580;-64
2023/12/22 13:52:45;;;;;;;1.00;0.90;;;;;;;;;;5057770;27;89805;-64
2023/12/22 13:55:14;;;;;;;1.67;1.00;;;;;;;;;;5058678;27;88299;-64
2023/12/22 13:57:43;;;;;;;2.10;1.30;;;;;;;;;;5057019;27;88885;-64
2023/12/22 14:00:28;;;;;;;1.73;1.00;;;;;;;;;;5058761;27;88340;-66
2023/12/22 14:02:57;;;;;;;0.73;0.70;;;;;;;;;;5058343;27;90673;-65
2023/12/22 14:05:26;;;;;;;3.47;1.27;;;;;;;;;;5060437;27;89069;-66
2023/12/22 14:07:59;;;;;;;2.60;1.17;;;;;;;;;;5058834;27;88749;-64
2023/12/22 14:10:27;;;;;;;4.73;0.80;;;;;;;;;;5059774;27;87919;-64
2023/12/22 14:12:57;;;;;;;0.57;0.57;;;;;;;;;;5056906;27;88581;-64
2023/12/22 14:15:28;;;;;;;2.33;0.97;;;;;;;;;;5059836;27;89545;-64
2023/12/22 14:18:10;;;;;;;1.23;0.80;;;;;;;;;;5050844;27;89061;-64
2023/12/22 14:20:39;;;;;;;2.13;1.17;;;;;;;;;;5059476;27;87649;-63
2023/12/22 14:23:08;;;;;;;2.80;1.00;;;;;;;;;;5058990;27;89876;-64
2023/12/22 14:25:40;;;;;;;1.23;0.87;;;;;;;;;;5059825;27;88884;-64
2023/12/22 14:28:08;;;;;;;2.50;1.57;;;;;;;;;;5059918;27;91748;-65
2023/12/22 14:30:37;;;;;;;1.67;1.30;;;;;;;;;;5062094;27;87641;-65
2023/12/22 14:33:05;;;;;;;2.60;1.33;;;;;;;;;;5062742;27;89624;-65
2023/12/22 14:35:35;;;;;;;2.27;1.83;;;;;;;;;;5061925;27;89171;-65
2023/12/22 14:38:05;;;;;;;2.07;1.50;;;;;;;;;;5062012;27;88777;-65
2023/12/22 14:40:34;;;;;;;3.87;1.53;;;;;;;;;;5061837;27;88001;-65
2023/12/22 14:43:02;;;;;;;4.23;1.20;;;;;;;;;;5052523;27;89746;-65
2023/12/22 14:45:31;;;;;;;4.77;2.10;;;;;;;;;;5062897;27;89123;-65
2023/12/22 14:48:00;;;;;;;2.23;1.50;;;;;;;;;;5059838;27;88843;-65
2023/12/22 14:50:28;;;;;;;3.17;1.70;;;;;;;;;;5062435;27;87867;-66
2023/12/22 14:52:58;;;;;;;2.53;1.77;;;;;;;;;;5062641;27;88399;-65
2023/12/22 14:55:27;;;;;;;2.93;2.13;;;;;;;;;;5062152;27;90048;-65
2023/12/22 14:57:56;;;;;;;2.73;2.10;;;;;;;;;;5061911;27;88838;-65